sensor_id;sensor_type;location;lat;lon;timestamp;P1;durP1;ratioP1;P2;durP2;ratioP2
8704;SDS011;4389;41.932;25.904;2024-02-14T00:00:05;7.70;;;7.00;;
8704;SDS011;4389;41.932;25.904;2024-02-14T00:02:35;7.43;;;6.73;;
8704;SDS011;4389;41.932;25.904;2024-02-14T00:05:02;8.13;;;7.30;;
8704;SDS011;4389;41.932;25.904;2024-02-14T00:07:29;7.07;;;6.37;;
8704;SDS011;4389;41.932;25.904;2024-02-14T00:09:57;5.47;;;4.97;;
8704;SDS011;4389;41.932;25.904;2024-02-14T00:12:24;18.50;;;13.83;;
8704;SDS011;4389;41.932;25.904;2024-02-14T00:14:51;6.43;;;5.83;;
8704;SDS011;4389;41.932;25.904;2024-02-14T00:17:18;7.53;;;6.37;;
8704;SDS011;4389;41.932;25.904;2024-02-14T00:19:45;6.17;;;5.20;;
8704;SDS011;4389;41.932;25.904;2024-02-14T00:22:12;5.40;;;4.90;;
8704;SDS011;4389;41.932;25.904;2024-02-14T00:24:38;5.40;;;4.90;;
8704;SDS011;4389;41.932;25.904;2024-02-14T00:27:07;5.37;;;4.87;;
8704;SDS011;4389;41.932;25.904;2024-02-14T00:29:33;6.23;;;4.40;;
8704;SDS011;4389;41.932;25.904;2024-02-14T00:32:00;4.60;;;4.07;;
8704;SDS011;4389;41.932;25.904;2024-02-14T00:34:27;4.00;;;3.60;;
8704;SDS011;4389;41.932;25.904;2024-02-14T00:36:54;6.20;;;3.13;;
8704;SDS011;4389;41.932;25.904;2024-02-14T00:39:21;3.77;;;3.07;;
8704;SDS011;4389;41.932;25.904;2024-02-14T00:41:48;3.80;;;3.40;;
8704;SDS011;4389;41.932;25.904;2024-02-14T00:44:16;3.70;;;3.40;;
8704;SDS011;4389;41.932;25.904;2024-02-14T00:46:44;4.87;;;3.00;;
8704;SDS011;4389;41.932;25.904;2024-02-14T00:49:10;5.37;;;3.67;;
8704;SDS011;4389;41.932;25.904;2024-02-14T00:51:38;5.87;;;3.40;;
8704;SDS011;4389;41.932;25.904;2024-02-14T00:54:05;3.03;;;2.63;;
8704;SDS011;4389;41.932;25.904;2024-02-14T00:56:32;4.67;;;3.07;;
8704;SDS011;4389;41.932;25.904;2024-02-14T00:59:02;3.03;;;2.60;;
8704;SDS011;4389;41.932;25.904;2024-02-14T01:01:30;3.10;;;2.67;;
8704;SDS011;4389;41.932;25.904;2024-02-14T01:03:57;2.87;;;2.60;;
8704;SDS011;4389;41.932;25.904;2024-02-14T01:06:24;3.53;;;2.97;;
8704;SDS011;4389;41.932;25.904;2024-02-14T01:08:51;2.87;;;2.57;;
8704;SDS011;4389;41.932;25.904;2024-02-14T01:11:18;3.27;;;2.63;;
8704;SDS011;4389;41.932;25.904;2024-02-14T01:13:45;3.57;;;3.10;;
8704;SDS011;4389;41.932;25.904;2024-02-14T01:16:12;3.17;;;2.80;;
8704;SDS011;4389;41.932;25.904;2024-02-14T01:18:41;3.10;;;2.80;;
8704;SDS011;4389;41.932;25.904;2024-02-14T01:21:08;3.77;;;3.30;;
8704;SDS011;4389;41.932;25.904;2024-02-14T01:23:34;4.43;;;3.60;;
8704;SDS011;4389;41.932;25.904;2024-02-14T01:26:01;7.80;;;3.80;;
8704;SDS011;4389;41.932;25.904;2024-02-14T01:28:28;3.80;;;3.40;;
8704;SDS011;4389;41.932;25.904;2024-02-14T01:30:55;5.00;;;3.20;;
8704;SDS011;4389;41.932;25.904;2024-02-14T01:33:22;3.63;;;3.27;;
8704;SDS011;4389;41.932;25.904;2024-02-14T01:35:51;5.10;;;3.10;;
8704;SDS011;4389;41.932;25.904;2024-02-14T01:38:18;4.50;;;3.20;;
8704;SDS011;4389;41.932;25.904;2024-02-14T01:40:45;4.27;;;3.17;;
8704;SDS011;4389;41.932;25.904;2024-02-14T01:43:11;3.13;;;2.60;;
8704;SDS011;4389;41.932;25.904;2024-02-14T01:45:39;4.03;;;3.10;;
8704;SDS011;4389;41.932;25.904;2024-02-14T01:48:07;3.80;;;3.37;;
8704;SDS011;4389;41.932;25.904;2024-02-14T01:50:35;3.10;;;2.80;;
8704;SDS011;4389;41.932;25.904;2024-02-14T01:53:05;4.23;;;2.70;;
8704;SDS011;4389;41.932;25.904;2024-02-14T01:55:33;4.33;;;3.13;;
8704;SDS011;4389;41.932;25.904;2024-02-14T01:58:00;2.70;;;2.50;;
8704;SDS011;4389;41.932;25.904;2024-02-14T02:00:28;2.57;;;2.37;;
8704;SDS011;4389;41.932;25.904;2024-02-14T02:02:56;3.73;;;2.63;;
8704;SDS011;4389;41.932;25.904;2024-02-14T02:05:24;2.90;;;2.57;;
8704;SDS011;4389;41.932;25.904;2024-02-14T02:07:51;2.50;;;2.30;;
8704;SDS011;4389;41.932;25.904;2024-02-14T02:10:20;2.20;;;2.03;;
8704;SDS011;4389;41.932;25.904;2024-02-14T02:12:57;2.66;;;2.10;;
8704;SDS011;4389;41.932;25.904;2024-02-14T02:15:25;1.80;;;1.70;;
8704;SDS011;4389;41.932;25.904;2024-02-14T02:17:53;3.17;;;2.30;;
8704;SDS011;4389;41.932;25.904;2024-02-14T02:20:21;2.33;;;2.13;;
8704;SDS011;4389;41.932;25.904;2024-02-14T02:22:49;2.90;;;2.20;;
8704;SDS011;4389;41.932;25.904;2024-02-14T02:25:16;3.03;;;2.47;;
8704;SDS011;4389;41.932;25.904;2024-02-14T02:27:43;2.40;;;2.20;;
8704;SDS011;4389;41.932;25.904;2024-02-14T02:30:10;4.40;;;2.53;;
8704;SDS011;4389;41.932;25.904;2024-02-14T02:32:39;2.20;;;2.00;;
8704;SDS011;4389;41.932;25.904;2024-02-14T02:35:06;2.17;;;1.97;;
8704;SDS011;4389;41.932;25.904;2024-02-14T02:37:34;2.40;;;1.90;;
8704;SDS011;4389;41.932;25.904;2024-02-14T02:40:03;2.20;;;2.00;;
8704;SDS011;4389;41.932;25.904;2024-02-14T02:42:30;2.37;;;2.13;;
8704;SDS011;4389;41.932;25.904;2024-02-14T02:44:57;2.17;;;1.97;;
8704;SDS011;4389;41.932;25.904;2024-02-14T02:47:24;2.73;;;2.00;;
8704;SDS011;4389;41.932;25.904;2024-02-14T02:49:51;3.50;;;2.10;;
8704;SDS011;4389;41.932;25.904;2024-02-14T02:52:18;1.93;;;1.80;;
8704;SDS011;4389;41.932;25.904;2024-02-14T02:54:45;2.10;;;1.90;;
8704;SDS011;4389;41.932;25.904;2024-02-14T02:57:13;2.20;;;2.00;;
8704;SDS011;4389;41.932;25.904;2024-02-14T02:59:40;2.10;;;1.90;;
8704;SDS011;4389;41.932;25.904;2024-02-14T03:02:09;1.97;;;1.83;;
8704;SDS011;4389;41.932;25.904;2024-02-14T03:04:37;3.40;;;3.10;;
8704;SDS011;4389;41.932;25.904;2024-02-14T03:07:04;4.53;;;2.73;;
8704;SDS011;4389;41.932;25.904;2024-02-14T03:09:33;2.57;;;2.37;;
8704;SDS011;4389;41.932;25.904;2024-02-14T03:12:01;5.00;;;2.27;;
8704;SDS011;4389;41.932;25.904;2024-02-14T03:14:29;2.23;;;2.03;;
8704;SDS011;4389;41.932;25.904;2024-02-14T03:16:58;1.63;;;1.53;;
8704;SDS011;4389;41.932;25.904;2024-02-14T03:19:26;4.30;;;1.87;;
8704;SDS011;4389;41.932;25.904;2024-02-14T03:21:53;4.17;;;2.30;;
8704;SDS011;4389;41.932;25.904;2024-02-14T03:24:20;2.90;;;2.70;;
8704;SDS011;4389;41.932;25.904;2024-02-14T03:26:50;3.00;;;2.80;;
8704;SDS011;4389;41.932;25.904;2024-02-14T03:29:18;4.70;;;4.30;;
8704;SDS011;4389;41.932;25.904;2024-02-14T03:31:47;3.07;;;2.83;;
8704;SDS011;4389;41.932;25.904;2024-02-14T03:34:15;6.13;;;5.63;;
8704;SDS011;4389;41.932;25.904;2024-02-14T03:36:42;3.27;;;3.00;;
8704;SDS011;4389;41.932;25.904;2024-02-14T03:39:09;6.27;;;5.77;;
8704;SDS011;4389;41.932;25.904;2024-02-14T03:41:36;3.10;;;1.90;;
8704;SDS011;4389;41.932;25.904;2024-02-14T03:44:04;2.30;;;2.10;;
8704;SDS011;4389;41.932;25.904;2024-02-14T03:46:33;3.13;;;2.93;;
8704;SDS011;4389;41.932;25.904;2024-02-14T03:49:02;2.07;;;1.87;;
8704;SDS011;4389;41.932;25.904;2024-02-14T03:51:29;2.17;;;1.97;;
8704;SDS011;4389;41.932;25.904;2024-02-14T03:53:56;2.30;;;2.10;;
8704;SDS011;4389;41.932;25.904;2024-02-14T03:56:23;2.33;;;2.13;;
8704;SDS011;4389;41.932;25.904;2024-02-14T03:58:51;2.70;;;2.50;;
8704;SDS011;4389;41.932;25.904;2024-02-14T04:01:18;3.83;;;2.47;;
8704;SDS011;4389;41.932;25.904;2024-02-14T04:03:45;2.90;;;2.57;;
8704;SDS011;4389;41.932;25.904;2024-02-14T04:06:15;3.23;;;2.20;;
8704;SDS011;4389;41.932;25.904;2024-02-14T04:08:42;7.47;;;2.50;;
8704;SDS011;4389;41.932;25.904;2024-02-14T04:11:08;2.73;;;2.07;;
8704;SDS011;4389;41.932;25.904;2024-02-14T04:13:36;2.23;;;2.03;;
8704;SDS011;4389;41.932;25.904;2024-02-14T04:16:02;2.33;;;2.13;;
8704;SDS011;4389;41.932;25.904;2024-02-14T04:18:30;2.10;;;1.90;;
8704;SDS011;4389;41.932;25.904;2024-02-14T04:20:57;4.27;;;2.20;;
8704;SDS011;4389;41.932;25.904;2024-02-14T04:23:26;2.27;;;2.07;;
8704;SDS011;4389;41.932;25.904;2024-02-14T04:25:52;2.50;;;2.30;;
8704;SDS011;4389;41.932;25.904;2024-02-14T04:28:19;7.20;;;3.00;;
8704;SDS011;4389;41.932;25.904;2024-02-14T04:30:47;2.80;;;2.60;;
8704;SDS011;4389;41.932;25.904;2024-02-14T04:33:14;11.13;;;2.77;;
8704;SDS011;4389;41.932;25.904;2024-02-14T04:35:40;2.73;;;2.47;;
8704;SDS011;4389;41.932;25.904;2024-02-14T04:38:07;5.73;;;2.90;;
8704;SDS011;4389;41.932;25.904;2024-02-14T04:40:36;2.67;;;2.17;;
8704;SDS011;4389;41.932;25.904;2024-02-14T04:43:04;3.23;;;2.40;;
8704;SDS011;4389;41.932;25.904;2024-02-14T04:45:31;2.40;;;2.20;;
8704;SDS011;4389;41.932;25.904;2024-02-14T04:47:58;2.80;;;2.50;;
8704;SDS011;4389;41.932;25.904;2024-02-14T04:50:24;3.40;;;3.10;;
8704;SDS011;4389;41.932;25.904;2024-02-14T04:52:51;3.90;;;3.03;;
8704;SDS011;4389;41.932;25.904;2024-02-14T04:55:18;3.20;;;2.90;;
8704;SDS011;4389;41.932;25.904;2024-02-14T04:57:47;3.37;;;3.07;;
8704;SDS011;4389;41.932;25.904;2024-02-14T05:00:14;3.63;;;2.77;;
8704;SDS011;4389;41.932;25.904;2024-02-14T05:02:41;5.20;;;4.67;;
8704;SDS011;4389;41.932;25.904;2024-02-14T05:05:08;4.17;;;3.30;;
8704;SDS011;4389;41.932;25.904;2024-02-14T05:07:35;3.57;;;2.83;;
8704;SDS011;4389;41.932;25.904;2024-02-14T05:10:02;3.53;;;2.80;;
8704;SDS011;4389;41.932;25.904;2024-02-14T05:12:29;4.97;;;2.83;;
8704;SDS011;4389;41.932;25.904;2024-02-14T05:14:57;7.00;;;3.10;;
8704;SDS011;4389;41.932;25.904;2024-02-14T05:17:24;2.80;;;2.60;;
8704;SDS011;4389;41.932;25.904;2024-02-14T05:19:51;3.37;;;3.07;;
8704;SDS011;4389;41.932;25.904;2024-02-14T05:22:18;4.00;;;3.07;;
8704;SDS011;4389;41.932;25.904;2024-02-14T05:24:45;2.97;;;2.77;;
8704;SDS011;4389;41.932;25.904;2024-02-14T05:27:12;3.30;;;3.00;;
8704;SDS011;4389;41.932;25.904;2024-02-14T05:29:38;3.47;;;3.17;;
8704;SDS011;4389;41.932;25.904;2024-02-14T05:32:07;7.10;;;4.17;;
8704;SDS011;4389;41.932;25.904;2024-02-14T05:34:34;4.63;;;2.90;;
8704;SDS011;4389;41.932;25.904;2024-02-14T05:37:01;4.90;;;2.70;;
8704;SDS011;4389;41.932;25.904;2024-02-14T05:39:28;3.37;;;3.07;;
8704;SDS011;4389;41.932;25.904;2024-02-14T05:41:54;3.40;;;3.07;;
8704;SDS011;4389;41.932;25.904;2024-02-14T05:44:21;3.77;;;3.00;;
8704;SDS011;4389;41.932;25.904;2024-02-14T05:46:48;3.40;;;3.10;;
8704;SDS011;4389;41.932;25.904;2024-02-14T05:49:16;9.00;;;3.10;;
8704;SDS011;4389;41.932;25.904;2024-02-14T05:51:43;3.33;;;3.03;;
8704;SDS011;4389;41.932;25.904;2024-02-14T05:54:10;3.37;;;3.07;;
8704;SDS011;4389;41.932;25.904;2024-02-14T05:56:37;4.13;;;3.40;;
8704;SDS011;4389;41.932;25.904;2024-02-14T05:59:03;8.53;;;3.40;;
8704;SDS011;4389;41.932;25.904;2024-02-14T06:01:30;4.93;;;4.33;;
8704;SDS011;4389;41.932;25.904;2024-02-14T06:03:57;7.10;;;3.33;;
8704;SDS011;4389;41.932;25.904;2024-02-14T06:06:25;3.67;;;3.30;;
8704;SDS011;4389;41.932;25.904;2024-02-14T06:08:52;3.90;;;3.50;;
8704;SDS011;4389;41.932;25.904;2024-02-14T06:11:20;6.40;;;4.53;;
8704;SDS011;4389;41.932;25.904;2024-02-14T06:13:47;3.90;;;3.50;;
8704;SDS011;4389;41.932;25.904;2024-02-14T06:16:14;5.73;;;4.30;;
8704;SDS011;4389;41.932;25.904;2024-02-14T06:18:41;5.27;;;3.60;;
8704;SDS011;4389;41.932;25.904;2024-02-14T06:21:07;4.73;;;4.10;;
8704;SDS011;4389;41.932;25.904;2024-02-14T06:23:36;5.07;;;3.33;;
8704;SDS011;4389;41.932;25.904;2024-02-14T06:26:04;4.67;;;3.50;;
8704;SDS011;4389;41.932;25.904;2024-02-14T06:28:31;3.40;;;3.10;;
8704;SDS011;4389;41.932;25.904;2024-02-14T06:30:58;3.53;;;3.23;;
8704;SDS011;4389;41.932;25.904;2024-02-14T06:33:25;4.60;;;3.47;;
8704;SDS011;4389;41.932;25.904;2024-02-14T06:35:53;3.27;;;2.97;;
8704;SDS011;4389;41.932;25.904;2024-02-14T06:38:20;5.77;;;4.77;;
8704;SDS011;4389;41.932;25.904;2024-02-14T06:40:48;4.93;;;4.53;;
8704;SDS011;4389;41.932;25.904;2024-02-14T06:43:15;4.67;;;3.97;;
8704;SDS011;4389;41.932;25.904;2024-02-14T06:45:42;4.80;;;4.00;;
8704;SDS011;4389;41.932;25.904;2024-02-14T06:48:09;11.93;;;4.97;;
8704;SDS011;4389;41.932;25.904;2024-02-14T06:50:36;3.73;;;3.27;;
8704;SDS011;4389;41.932;25.904;2024-02-14T06:53:03;3.87;;;3.47;;
8704;SDS011;4389;41.932;25.904;2024-02-14T06:55:30;3.40;;;3.07;;
8704;SDS011;4389;41.932;25.904;2024-02-14T06:57:59;8.00;;;3.10;;
8704;SDS011;4389;41.932;25.904;2024-02-14T07:00:26;5.23;;;3.10;;
8704;SDS011;4389;41.932;25.904;2024-02-14T07:02:54;4.00;;;3.60;;
8704;SDS011;4389;41.932;25.904;2024-02-14T07:05:22;5.13;;;3.17;;
8704;SDS011;4389;41.932;25.904;2024-02-14T07:07:48;3.80;;;3.33;;
8704;SDS011;4389;41.932;25.904;2024-02-14T07:10:15;4.47;;;4.07;;
8704;SDS011;4389;41.932;25.904;2024-02-14T07:12:42;3.70;;;3.23;;
8704;SDS011;4389;41.932;25.904;2024-02-14T07:15:10;9.87;;;3.70;;
8704;SDS011;4389;41.932;25.904;2024-02-14T07:17:38;4.10;;;3.70;;
8704;SDS011;4389;41.932;25.904;2024-02-14T07:20:06;6.33;;;3.80;;
8704;SDS011;4389;41.932;25.904;2024-02-14T07:22:34;5.33;;;4.80;;
8704;SDS011;4389;41.932;25.904;2024-02-14T07:25:01;4.97;;;3.80;;
8704;SDS011;4389;41.932;25.904;2024-02-14T07:27:30;5.87;;;3.40;;
8704;SDS011;4389;41.932;25.904;2024-02-14T07:29:57;6.07;;;4.90;;
8704;SDS011;4389;41.932;25.904;2024-02-14T07:32:25;6.47;;;3.97;;
8704;SDS011;4389;41.932;25.904;2024-02-14T07:34:52;5.17;;;4.67;;
8704;SDS011;4389;41.932;25.904;2024-02-14T07:37:19;13.20;;;5.87;;
8704;SDS011;4389;41.932;25.904;2024-02-14T07:39:46;5.93;;;3.87;;
8704;SDS011;4389;41.932;25.904;2024-02-14T07:42:13;5.43;;;3.93;;
8704;SDS011;4389;41.932;25.904;2024-02-14T07:44:41;3.60;;;3.03;;
8704;SDS011;4389;41.932;25.904;2024-02-14T07:47:07;6.70;;;4.10;;
8704;SDS011;4389;41.932;25.904;2024-02-14T07:49:36;6.20;;;3.97;;
8704;SDS011;4389;41.932;25.904;2024-02-14T07:52:03;6.33;;;4.90;;
8704;SDS011;4389;41.932;25.904;2024-02-14T07:54:30;4.63;;;3.50;;
8704;SDS011;4389;41.932;25.904;2024-02-14T07:56:57;14.40;;;5.57;;
8704;SDS011;4389;41.932;25.904;2024-02-14T07:59:24;5.23;;;3.63;;
8704;SDS011;4389;41.932;25.904;2024-02-14T08:01:52;4.30;;;3.37;;
8704;SDS011;4389;41.932;25.904;2024-02-14T08:04:19;4.37;;;3.30;;
8704;SDS011;4389;41.932;25.904;2024-02-14T08:06:47;9.03;;;4.07;;
8704;SDS011;4389;41.932;25.904;2024-02-14T08:09:15;10.53;;;4.67;;
8704;SDS011;4389;41.932;25.904;2024-02-14T08:11:42;6.17;;;5.57;;
8704;SDS011;4389;41.932;25.904;2024-02-14T08:14:09;8.73;;;3.70;;
8704;SDS011;4389;41.932;25.904;2024-02-14T08:16:36;4.87;;;3.83;;
8704;SDS011;4389;41.932;25.904;2024-02-14T08:19:03;16.40;;;4.73;;
8704;SDS011;4389;41.932;25.904;2024-02-14T08:21:30;5.13;;;4.53;;
8704;SDS011;4389;41.932;25.904;2024-02-14T08:23:59;4.33;;;3.93;;
8704;SDS011;4389;41.932;25.904;2024-02-14T08:26:25;11.40;;;3.63;;
8704;SDS011;4389;41.932;25.904;2024-02-14T08:28:53;3.97;;;3.37;;
8704;SDS011;4389;41.932;25.904;2024-02-14T08:31:19;7.20;;;4.33;;
8704;SDS011;4389;41.932;25.904;2024-02-14T08:33:47;4.07;;;3.70;;
8704;SDS011;4389;41.932;25.904;2024-02-14T08:36:14;3.60;;;3.30;;
8704;SDS011;4389;41.932;25.904;2024-02-14T08:38:42;3.17;;;2.10;;
8704;SDS011;4389;41.932;25.904;2024-02-14T08:41:10;2.07;;;1.87;;
8704;SDS011;4389;41.932;25.904;2024-02-14T08:43:37;2.27;;;2.17;;
8704;SDS011;4389;41.932;25.904;2024-02-14T08:46:08;2.47;;;2.03;;
8704;SDS011;4389;41.932;25.904;2024-02-14T08:48:36;4.40;;;3.43;;
8704;SDS011;4389;41.932;25.904;2024-02-14T08:51:07;2.87;;;2.57;;
8704;SDS011;4389;41.932;25.904;2024-02-14T08:53:34;7.97;;;4.50;;
8704;SDS011;4389;41.932;25.904;2024-02-14T08:56:02;4.77;;;2.70;;
8704;SDS011;4389;41.932;25.904;2024-02-14T08:58:30;4.53;;;4.13;;
8704;SDS011;4389;41.932;25.904;2024-02-14T09:00:57;5.23;;;4.73;;
8704;SDS011;4389;41.932;25.904;2024-02-14T09:03:24;4.00;;;3.70;;
8704;SDS011;4389;41.932;25.904;2024-02-14T09:05:51;2.90;;;2.63;;
8704;SDS011;4389;41.932;25.904;2024-02-14T09:08:19;3.43;;;3.13;;
8704;SDS011;4389;41.932;25.904;2024-02-14T09:10:46;4.73;;;4.33;;
8704;SDS011;4389;41.932;25.904;2024-02-14T09:13:13;3.57;;;3.27;;
8704;SDS011;4389;41.932;25.904;2024-02-14T09:15:42;5.93;;;5.43;;
8704;SDS011;4389;41.932;25.904;2024-02-14T09:18:09;3.37;;;2.10;;
8704;SDS011;4389;41.932;25.904;2024-02-14T09:20:36;3.57;;;1.93;;
8704;SDS011;4389;41.932;25.904;2024-02-14T09:23:03;2.20;;;2.00;;
8704;SDS011;4389;41.932;25.904;2024-02-14T09:25:30;4.00;;;3.50;;
8704;SDS011;4389;41.932;25.904;2024-02-14T09:27:57;3.67;;;2.53;;
8704;SDS011;4389;41.932;25.904;2024-02-14T09:30:24;3.63;;;2.87;;
8704;SDS011;4389;41.932;25.904;2024-02-14T09:32:52;3.17;;;2.83;;
8704;SDS011;4389;41.932;25.904;2024-02-14T09:35:19;2.67;;;2.33;;
8704;SDS011;4389;41.932;25.904;2024-02-14T09:37:46;3.37;;;2.93;;
8704;SDS011;4389;41.932;25.904;2024-02-14T09:40:13;3.20;;;2.90;;
8704;SDS011;4389;41.932;25.904;2024-02-14T09:42:43;5.03;;;3.00;;
8704;SDS011;4389;41.932;25.904;2024-02-14T09:45:11;2.33;;;2.13;;
8704;SDS011;4389;41.932;25.904;2024-02-14T09:47:38;2.40;;;2.07;;
8704;SDS011;4389;41.932;25.904;2024-02-14T09:50:08;2.20;;;1.70;;
8704;SDS011;4389;41.932;25.904;2024-02-14T09:52:36;2.47;;;1.90;;
8704;SDS011;4389;41.932;25.904;2024-02-14T09:55:04;2.90;;;1.77;;
8704;SDS011;4389;41.932;25.904;2024-02-14T09:57:32;2.20;;;2.00;;
8704;SDS011;4389;41.932;25.904;2024-02-14T10:00:00;2.33;;;1.63;;
8704;SDS011;4389;41.932;25.904;2024-02-14T10:02:28;4.47;;;2.13;;
8704;SDS011;4389;41.932;25.904;2024-02-14T10:04:56;2.90;;;2.17;;
8704;SDS011;4389;41.932;25.904;2024-02-14T10:07:24;3.47;;;3.03;;
8704;SDS011;4389;41.932;25.904;2024-02-14T10:09:52;4.33;;;3.43;;
8704;SDS011;4389;41.932;25.904;2024-02-14T10:12:20;4.57;;;3.90;;
8704;SDS011;4389;41.932;25.904;2024-02-14T10:14:47;5.70;;;4.50;;
8704;SDS011;4389;41.932;25.904;2024-02-14T10:17:17;5.43;;;4.07;;
8704;SDS011;4389;41.932;25.904;2024-02-14T10:19:54;3.57;;;2.70;;
8704;SDS011;4389;41.932;25.904;2024-02-14T10:22:22;11.87;;;2.50;;
8704;SDS011;4389;41.932;25.904;2024-02-14T10:24:51;1.47;;;1.37;;
8704;SDS011;4389;41.932;25.904;2024-02-14T10:27:20;1.70;;;1.60;;
8704;SDS011;4389;41.932;25.904;2024-02-14T10:29:47;3.67;;;2.10;;
8704;SDS011;4389;41.932;25.904;2024-02-14T10:32:14;3.70;;;1.83;;
8704;SDS011;4389;41.932;25.904;2024-02-14T10:34:43;1.40;;;1.30;;
8704;SDS011;4389;41.932;25.904;2024-02-14T10:37:13;1.83;;;1.67;;
8704;SDS011;4389;41.932;25.904;2024-02-14T10:39:41;1.73;;;1.33;;
8704;SDS011;4389;41.932;25.904;2024-02-14T10:42:11;11.23;;;1.93;;
8704;SDS011;4389;41.932;25.904;2024-02-14T10:44:38;5.07;;;1.70;;
8704;SDS011;4389;41.932;25.904;2024-02-14T10:47:06;1.60;;;1.50;;
8704;SDS011;4389;41.932;25.904;2024-02-14T10:49:41;2.97;;;1.50;;
8704;SDS011;4389;41.932;25.904;2024-02-14T10:52:09;1.67;;;1.27;;
8704;SDS011;4389;41.932;25.904;2024-02-14T10:54:37;1.87;;;1.50;;
8704;SDS011;4389;41.932;25.904;2024-02-14T10:57:07;3.12;;;1.42;;
8704;SDS011;4389;41.932;25.904;2024-02-14T10:59:38;5.33;;;1.13;;
8704;SDS011;4389;41.932;25.904;2024-02-14T11:02:09;1.73;;;1.27;;
8704;SDS011;4389;41.932;25.904;2024-02-14T11:04:36;6.53;;;1.33;;
8704;SDS011;4389;41.932;25.904;2024-02-14T11:07:08;2.07;;;1.07;;
8704;SDS011;4389;41.932;25.904;2024-02-14T11:09:36;1.20;;;1.00;;
8704;SDS011;4389;41.932;25.904;2024-02-14T11:12:06;1.33;;;0.90;;
8704;SDS011;4389;41.932;25.904;2024-02-14T11:14:35;1.53;;;1.17;;
8704;SDS011;4389;41.932;25.904;2024-02-14T11:17:08;1.87;;;1.10;;
8704;SDS011;4389;41.932;25.904;2024-02-14T11:19:35;4.10;;;1.30;;
8704;SDS011;4389;41.932;25.904;2024-02-14T11:24:47;3.00;;;1.50;;
8704;SDS011;4389;41.932;25.904;2024-02-14T11:27:14;1.97;;;1.43;;
8704;SDS011;4389;41.932;25.904;2024-02-14T11:29:50;1.87;;;1.00;;
8704;SDS011;4389;41.932;25.904;2024-02-14T11:32:19;10.47;;;1.53;;
8704;SDS011;4389;41.932;25.904;2024-02-14T11:34:52;4.43;;;1.40;;
8704;SDS011;4389;41.932;25.904;2024-02-14T11:37:20;1.10;;;1.00;;
8704;SDS011;4389;41.932;25.904;2024-02-14T11:39:53;1.17;;;0.90;;
8704;SDS011;4389;41.932;25.904;2024-02-14T11:42:23;1.97;;;0.90;;
8704;SDS011;4389;41.932;25.904;2024-02-14T11:44:49;13.00;;;2.00;;
8704;SDS011;4389;41.932;25.904;2024-02-14T11:47:17;4.37;;;1.40;;
8704;SDS011;4389;41.932;25.904;2024-02-14T11:49:45;1.27;;;1.10;;
8704;SDS011;4389;41.932;25.904;2024-02-14T11:52:12;1.50;;;1.40;;
8704;SDS011;4389;41.932;25.904;2024-02-14T11:54:45;2.67;;;1.93;;
8704;SDS011;4389;41.932;25.904;2024-02-14T11:57:16;8.50;;;1.70;;
8704;SDS011;4389;41.932;25.904;2024-02-14T11:59:43;7.40;;;3.57;;
8704;SDS011;4389;41.932;25.904;2024-02-14T12:02:12;12.53;;;4.23;;
8704;SDS011;4389;41.932;25.904;2024-02-14T12:04:39;19.50;;;13.00;;
8704;SDS011;4389;41.932;25.904;2024-02-14T12:07:08;2.70;;;1.40;;
8704;SDS011;4389;41.932;25.904;2024-02-14T12:09:35;1.30;;;1.20;;
8704;SDS011;4389;41.932;25.904;2024-02-14T12:12:02;4.17;;;2.10;;
8704;SDS011;4389;41.932;25.904;2024-02-14T12:14:32;2.00;;;1.00;;
8704;SDS011;4389;41.932;25.904;2024-02-14T12:17:00;1.23;;;1.13;;
8704;SDS011;4389;41.932;25.904;2024-02-14T12:19:28;1.07;;;0.97;;
8704;SDS011;4389;41.932;25.904;2024-02-14T12:21:54;5.10;;;1.67;;
8704;SDS011;4389;41.932;25.904;2024-02-14T12:24:27;2.83;;;1.90;;
8704;SDS011;4389;41.932;25.904;2024-02-14T12:26:55;2.13;;;1.37;;
8704;SDS011;4389;41.932;25.904;2024-02-14T12:29:23;1.27;;;1.17;;
8704;SDS011;4389;41.932;25.904;2024-02-14T12:31:50;1.57;;;1.43;;
8704;SDS011;4389;41.932;25.904;2024-02-14T12:34:17;1.73;;;1.60;;
8704;SDS011;4389;41.932;25.904;2024-02-14T12:36:45;2.70;;;1.60;;
8704;SDS011;4389;41.932;25.904;2024-02-14T12:39:12;4.40;;;2.23;;
8704;SDS011;4389;41.932;25.904;2024-02-14T12:41:40;4.50;;;2.30;;
8704;SDS011;4389;41.932;25.904;2024-02-14T12:44:07;1.40;;;1.20;;
8704;SDS011;4389;41.932;25.904;2024-02-14T12:46:34;1.73;;;1.60;;
8704;SDS011;4389;41.932;25.904;2024-02-14T12:49:03;1.60;;;1.30;;
8704;SDS011;4389;41.932;25.904;2024-02-14T12:51:30;2.20;;;1.60;;
8704;SDS011;4389;41.932;25.904;2024-02-14T12:53:58;1.97;;;1.70;;
8704;SDS011;4389;41.932;25.904;2024-02-14T12:56:27;2.87;;;1.70;;
8704;SDS011;4389;41.932;25.904;2024-02-14T12:58:56;3.10;;;1.40;;
8704;SDS011;4389;41.932;25.904;2024-02-14T13:01:25;8.70;;;1.97;;
8704;SDS011;4389;41.932;25.904;2024-02-14T13:03:52;10.33;;;1.30;;
8704;SDS011;4389;41.932;25.904;2024-02-14T13:06:19;4.07;;;1.50;;
8704;SDS011;4389;41.932;25.904;2024-02-14T13:08:46;3.63;;;1.53;;
8704;SDS011;4389;41.932;25.904;2024-02-14T13:11:13;5.20;;;1.57;;
8704;SDS011;4389;41.932;25.904;2024-02-14T13:13:44;7.17;;;1.90;;
8704;SDS011;4389;41.932;25.904;2024-02-14T13:16:15;1.97;;;1.20;;
8704;SDS011;4389;41.932;25.904;2024-02-14T13:18:42;4.07;;;1.50;;
8704;SDS011;4389;41.932;25.904;2024-02-14T13:21:09;2.10;;;1.60;;
8704;SDS011;4389;41.932;25.904;2024-02-14T13:23:36;2.73;;;1.50;;
8704;SDS011;4389;41.932;25.904;2024-02-14T13:26:03;4.90;;;1.60;;
8704;SDS011;4389;41.932;25.904;2024-02-14T13:28:30;4.70;;;1.20;;
8704;SDS011;4389;41.932;25.904;2024-02-14T13:30:57;2.47;;;1.20;;
8704;SDS011;4389;41.932;25.904;2024-02-14T13:33:26;6.73;;;1.77;;
8704;SDS011;4389;41.932;25.904;2024-02-14T13:35:52;4.00;;;1.47;;
8704;SDS011;4389;41.932;25.904;2024-02-14T13:38:19;4.73;;;1.73;;
8704;SDS011;4389;41.932;25.904;2024-02-14T13:40:47;3.57;;;1.27;;
8704;SDS011;4389;41.932;25.904;2024-02-14T13:43:14;3.10;;;1.00;;
8704;SDS011;4389;41.932;25.904;2024-02-14T13:45:42;2.77;;;1.20;;
8704;SDS011;4389;41.932;25.904;2024-02-14T13:48:10;1.63;;;1.00;;
8704;SDS011;4389;41.932;25.904;2024-02-14T13:50:38;2.90;;;1.10;;
8704;SDS011;4389;41.932;25.904;2024-02-14T13:53:06;1.23;;;0.97;;
8704;SDS011;4389;41.932;25.904;2024-02-14T13:55:33;3.13;;;0.90;;
8704;SDS011;4389;41.932;25.904;2024-02-14T13:58:00;4.77;;;1.00;;
8704;SDS011;4389;41.932;25.904;2024-02-14T14:00:28;3.10;;;0.90;;
8704;SDS011;4389;41.932;25.904;2024-02-14T14:02:58;1.20;;;0.87;;
8704;SDS011;4389;41.932;25.904;2024-02-14T14:05:25;2.67;;;1.00;;
8704;SDS011;4389;41.932;25.904;2024-02-14T14:07:53;2.50;;;1.13;;
8704;SDS011;4389;41.932;25.904;2024-02-14T14:10:20;2.20;;;1.30;;
8704;SDS011;4389;41.932;25.904;2024-02-14T14:12:48;4.60;;;1.30;;
8704;SDS011;4389;41.932;25.904;2024-02-14T14:15:15;4.43;;;1.40;;
8704;SDS011;4389;41.932;25.904;2024-02-14T14:17:42;4.73;;;2.10;;
8704;SDS011;4389;41.932;25.904;2024-02-14T14:20:09;4.57;;;1.90;;
8704;SDS011;4389;41.932;25.904;2024-02-14T14:22:37;2.53;;;1.37;;
8704;SDS011;4389;41.932;25.904;2024-02-14T14:25:06;3.03;;;1.87;;
8704;SDS011;4389;41.932;25.904;2024-02-14T14:27:33;8.40;;;2.00;;
8704;SDS011;4389;41.932;25.904;2024-02-14T14:30:00;4.07;;;1.50;;
8704;SDS011;4389;41.932;25.904;2024-02-14T14:32:27;3.50;;;1.90;;
8704;SDS011;4389;41.932;25.904;2024-02-14T14:34:54;1.53;;;1.10;;
8704;SDS011;4389;41.932;25.904;2024-02-14T14:37:21;3.90;;;1.70;;
8704;SDS011;4389;41.932;25.904;2024-02-14T14:39:48;2.53;;;1.80;;
8704;SDS011;4389;41.932;25.904;2024-02-14T14:42:16;5.50;;;2.53;;
8704;SDS011;4389;41.932;25.904;2024-02-14T14:44:44;4.23;;;2.60;;
8704;SDS011;4389;41.932;25.904;2024-02-14T14:47:11;3.47;;;1.90;;
8704;SDS011;4389;41.932;25.904;2024-02-14T14:49:38;7.37;;;1.93;;
8704;SDS011;4389;41.932;25.904;2024-02-14T14:52:05;4.87;;;1.90;;
8704;SDS011;4389;41.932;25.904;2024-02-14T14:54:32;8.03;;;1.90;;
8704;SDS011;4389;41.932;25.904;2024-02-14T14:56:58;4.37;;;1.93;;
8704;SDS011;4389;41.932;25.904;2024-02-14T14:59:30;2.40;;;1.40;;
8704;SDS011;4389;41.932;25.904;2024-02-14T15:02:00;3.17;;;1.50;;
8704;SDS011;4389;41.932;25.904;2024-02-14T15:04:27;1.60;;;1.50;;